createdAt,value
2022-11-19T08:37:06.768Z,4.28
2022-11-19T08:40:19.801Z,4.20
2022-11-19T08:43:30.096Z,4.24
2022-11-19T08:46:41.722Z,4.27
2022-11-19T08:49:53.203Z,4.31
2022-11-19T08:53:06.202Z,4.41
2022-11-19T08:56:18.763Z,4.46
2022-11-19T08:59:30.625Z,4.51
2022-11-19T09:02:42.034Z,4.57
2022-11-19T09:06:00.436Z,4.52
2022-11-19T09:09:11.804Z,4.50
2022-11-19T09:12:24.786Z,4.46
2022-11-19T09:15:37.248Z,4.51
2022-11-19T09:18:48.865Z,4.43
2022-11-19T09:22:00.165Z,4.44
2022-11-19T09:25:11.376Z,4.32
2022-11-19T09:28:24.646Z,4.34
2022-11-19T09:31:35.995Z,4.36
2022-11-19T09:34:47.887Z,4.26
2022-11-19T09:37:59.229Z,4.17
2022-11-19T09:41:30.848Z,4.27
2022-11-19T09:44:54.820Z,4.36
2022-11-19T09:48:18.474Z,4.48
2022-11-19T09:51:35.525Z,4.60
2022-11-19T09:54:49.940Z,4.73
2022-11-19T09:58:03.335Z,4.67
2022-11-19T10:01:18.929Z,4.58
2022-11-19T10:04:33.573Z,4.55
2022-11-19T10:07:55.926Z,4.53
2022-11-19T10:11:26.699Z,4.35
2022-11-19T10:14:51.127Z,4.42
2022-11-19T10:18:15.987Z,4.43
2022-11-19T10:21:35.249Z,4.37
2022-11-19T10:24:53.447Z,4.27
2022-11-19T10:28:14.507Z,4.40
2022-11-19T10:31:31.513Z,4.34
2022-11-19T10:34:44.460Z,4.36
2022-11-19T10:37:59.828Z,4.35
2022-11-19T10:41:16.988Z,4.48
2022-11-19T10:44:41.484Z,4.51
2022-11-19T10:47:57.718Z,4.35
2022-11-19T10:51:15.789Z,4.19
2022-11-19T10:54:30.571Z,4.31
2022-11-19T10:57:42.467Z,4.24
2022-11-19T11:00:56.030Z,4.25
2022-11-19T11:04:13.703Z,4.27
2022-11-19T11:07:50.454Z,4.35
2022-11-19T11:11:02.943Z,4.47
2022-11-19T11:14:26.121Z,4.53
2022-11-19T11:17:39.091Z,4.39
2022-11-19T11:20:52.749Z,4.08
2022-11-19T11:24:06.283Z,4.02
2022-11-19T11:27:21.649Z,3.86
2022-11-19T11:30:33.000Z,3.79
2022-11-19T11:33:55.521Z,3.76
2022-11-19T11:37:10.088Z,3.73
2022-11-19T11:40:24.885Z,3.86
2022-11-19T11:43:37.370Z,4.07
2022-11-19T11:46:50.654Z,4.08
2022-11-19T11:50:08.500Z,4.13
2022-11-19T11:53:31.177Z,4.17
2022-11-19T11:56:44.952Z,4.14
2022-11-19T11:59:56.294Z,4.03
2022-11-19T12:03:08.662Z,3.98
2022-11-19T12:06:21.516Z,3.99
2022-11-19T12:09:40.530Z,4.02
2022-11-19T12:13:06.970Z,4.02
2022-11-19T12:16:28.364Z,4.02
2022-11-19T12:19:56.148Z,4.11
2022-11-19T12:23:24.752Z,4.10
2022-11-19T12:26:48.526Z,4.03
2022-11-19T12:30:06.399Z,3.92
2022-11-19T12:33:30.582Z,3.82
2022-11-19T12:36:49.988Z,3.80
2022-11-19T12:40:06.200Z,3.77
2022-11-19T12:43:40.537Z,3.67
2022-11-19T12:47:01.878Z,3.72
2022-11-19T12:50:23.646Z,3.73
2022-11-19T12:53:56.978Z,3.72
2022-11-19T12:57:23.707Z,3.68
2022-11-19T13:00:41.172Z,3.71
2022-11-19T13:04:04.220Z,3.81
2022-11-19T13:07:21.161Z,3.77
2022-11-19T13:10:37.677Z,3.70
2022-11-19T13:13:53.531Z,3.66
2022-11-19T13:17:09.295Z,3.73
2022-11-19T13:20:26.525Z,3.81
2022-11-19T13:23:43.035Z,3.87
2022-11-19T13:26:56.935Z,3.84
2022-11-19T13:30:15.955Z,3.81
2022-11-19T13:33:32.377Z,3.87
2022-11-19T13:36:56.417Z,3.86
2022-11-19T13:40:17.465Z,3.85
2022-11-19T13:43:39.566Z,3.90
2022-11-19T13:46:57.206Z,3.93
2022-11-19T13:50:17.728Z,4.00
2022-11-19T13:53:35.387Z,4.04
2022-11-19T13:56:49.006Z,4.00
2022-11-19T14:00:03.100Z,4.04
2022-11-19T14:03:42.017Z,3.92
2022-11-19T14:07:09.186Z,3.79
2022-11-19T14:10:26.136Z,3.74
2022-11-19T14:13:53.497Z,3.72
2022-11-19T14:17:25.303Z,3.87
2022-11-19T14:20:50.932Z,3.69
2022-11-19T14:24:12.886Z,3.77
2022-11-19T14:27:26.385Z,3.78
2022-11-19T14:31:02.110Z,3.76
2022-11-19T14:34:27.559Z,3.69
2022-11-19T14:37:43.268Z,3.73
2022-11-19T14:41:15.746Z,3.81
2022-11-19T14:44:36.277Z,3.92
2022-11-19T14:47:49.019Z,3.91
2022-11-19T14:51:06.281Z,3.85
2022-11-19T14:54:31.600Z,3.80
2022-11-19T14:57:45.189Z,3.76
2022-11-19T15:01:09.920Z,3.66
2022-11-19T15:04:24.243Z,3.70
2022-11-19T15:07:38.804Z,3.68
2022-11-19T15:11:03.880Z,3.65
2022-11-19T15:14:39.817Z,3.57
2022-11-19T15:18:02.488Z,3.61
2022-11-19T15:21:28.761Z,3.62
2022-11-19T15:24:54.359Z,3.64
2022-11-19T15:28:22.518Z,3.55
2022-11-19T15:31:49.119Z,3.48
2022-11-19T15:35:30.447Z,3.39
2022-11-19T15:38:46.756Z,3.40
2022-11-19T15:42:03.898Z,3.42
2022-11-19T15:45:20.147Z,3.43
2022-11-19T15:48:39.608Z,3.48
2022-11-19T15:52:01.229Z,3.54
2022-11-19T15:55:13.259Z,3.55
2022-11-19T15:58:28.132Z,3.54
2022-11-19T16:01:39.567Z,3.44
2022-11-19T16:04:51.750Z,3.33
2022-11-19T16:08:08.739Z,3.34
2022-11-19T16:11:34.702Z,3.34
2022-11-19T16:15:02.512Z,3.30
2022-11-19T16:18:16.405Z,3.18
2022-11-19T16:21:32.827Z,3.19
2022-11-19T16:24:59.247Z,3.17
2022-11-19T16:28:14.846Z,3.20
2022-11-19T16:31:32.401Z,3.23
2022-11-19T16:34:43.738Z,3.22
2022-11-19T16:37:56.759Z,3.28
2022-11-19T16:41:22.633Z,3.36
2022-11-19T16:44:34.920Z,3.43
2022-11-19T16:47:54.772Z,3.46
2022-11-19T16:51:27.391Z,3.42
2022-11-19T16:54:47.439Z,3.35
2022-11-19T16:58:03.092Z,3.28
2022-11-19T17:01:18.792Z,3.29
2022-11-19T17:04:32.232Z,3.29
2022-11-19T17:07:45.104Z,3.40
2022-11-19T17:11:35.383Z,3.39
2022-11-19T17:14:53.139Z,3.33
2022-11-19T17:18:16.297Z,3.33
2022-11-19T17:21:31.067Z,3.41
2022-11-19T17:24:45.561Z,3.43
2022-11-19T17:27:58.291Z,3.43
2022-11-19T17:31:17.638Z,3.36
2022-11-19T17:34:32.550Z,3.29
2022-11-19T17:37:43.869Z,3.28
2022-11-19T17:40:57.948Z,3.22
2022-11-19T17:44:24.715Z,3.25
2022-11-19T17:47:37.448Z,3.21
2022-11-19T17:50:48.867Z,3.24
2022-11-19T17:54:00.827Z,3.26
2022-11-19T17:57:12.066Z,3.30
2022-11-19T18:00:23.446Z,3.27
2022-11-19T18:03:36.055Z,3.24
2022-11-19T18:06:47.586Z,3.08
2022-11-19T18:09:58.857Z,3.05
2022-11-19T18:13:12.647Z,2.98
2022-11-19T18:16:25.206Z,2.93
2022-11-19T18:19:37.874Z,2.93
2022-11-19T18:22:49.245Z,2.90
2022-11-19T18:26:00.662Z,2.95
2022-11-19T18:29:13.227Z,2.93
2022-11-19T18:32:24.343Z,3.00
2022-11-19T18:35:36.934Z,3.06
2022-11-19T18:38:48.643Z,3.07
2022-11-19T18:41:59.992Z,3.01
2022-11-19T18:45:12.705Z,3.05
2022-11-19T18:48:24.393Z,3.09
2022-11-19T18:51:36.961Z,3.10
2022-11-19T18:54:48.471Z,3.12
2022-11-19T18:57:59.814Z,3.09
2022-11-19T19:01:11.515Z,3.04
2022-11-19T19:04:22.875Z,3.03
2022-11-19T19:07:36.045Z,2.94
2022-11-19T19:10:47.499Z,2.96
2022-11-19T19:13:58.822Z,2.98
2022-11-19T19:17:10.011Z,3.00
2022-11-19T19:20:21.232Z,2.96
2022-11-19T19:23:34.113Z,2.90
2022-11-19T19:26:46.264Z,2.92
2022-11-19T19:29:57.469Z,3.00
2022-11-19T19:33:08.940Z,2.99
2022-11-19T19:36:21.951Z,3.01
2022-11-19T19:39:34.732Z,3.08
2022-11-19T19:42:46.032Z,3.06
2022-11-19T19:45:57.490Z,3.06
2022-11-19T19:49:08.849Z,3.11
2022-11-19T19:52:20.290Z,3.11
2022-11-19T19:55:33.120Z,3.11
2022-11-19T19:58:46.215Z,3.12
2022-11-19T20:01:57.621Z,3.08
2022-11-19T20:05:08.992Z,3.01
2022-11-19T20:08:20.363Z,2.97
2022-11-19T20:11:33.919Z,2.97
2022-11-19T20:14:45.397Z,2.97
2022-11-19T20:17:56.769Z,2.92
2022-11-19T20:21:09.390Z,2.94
2022-11-19T20:24:22.185Z,2.93
2022-11-19T20:27:34.709Z,2.91
2022-11-19T20:30:46.093Z,2.92
2022-11-19T20:33:58.340Z,2.84
2022-11-19T20:37:09.739Z,2.85
2022-11-19T20:40:21.053Z,2.89
2022-11-19T20:43:48.876Z,2.88
2022-11-19T20:47:03.940Z,2.91
2022-11-19T20:50:15.191Z,2.98
2022-11-19T20:53:26.632Z,2.98
2022-11-19T20:56:38.899Z,3.06
2022-11-19T20:59:51.894Z,3.14
2022-11-19T21:03:03.650Z,3.12
2022-11-19T21:06:15.032Z,3.11
2022-11-19T21:09:26.504Z,3.11
2022-11-19T21:12:58.160Z,3.14
2022-11-19T21:16:13.949Z,3.23
2022-11-19T21:19:25.251Z,3.27
2022-11-19T21:22:36.591Z,3.30
2022-11-19T21:25:47.941Z,3.33
2022-11-19T21:29:00.471Z,3.36
2022-11-19T21:32:13.252Z,3.34
2022-11-19T21:35:25.064Z,3.33
2022-11-19T21:38:37.082Z,3.38
2022-11-19T21:41:48.575Z,3.32
2022-11-19T21:44:59.965Z,3.22
2022-11-19T21:48:12.632Z,3.26
2022-11-19T21:51:25.184Z,3.29
2022-11-19T21:54:36.705Z,3.31
2022-11-19T21:57:48.287Z,3.30
2022-11-19T22:01:00.209Z,3.29
2022-11-19T22:04:14.272Z,3.25
2022-11-19T22:07:25.850Z,3.19
2022-11-19T22:10:40.270Z,3.22
2022-11-19T22:13:56.272Z,3.22
2022-11-19T22:17:07.893Z,3.24
2022-11-19T22:20:20.548Z,3.26
2022-11-19T22:23:32.231Z,3.29
2022-11-19T22:26:43.801Z,3.24
2022-11-19T22:29:56.687Z,3.21
2022-11-19T22:33:08.220Z,3.20
2022-11-19T22:36:21.679Z,3.14
2022-11-19T22:39:33.080Z,3.04
